Kagamaru — JD3049 — position and weather

sailwx.info

Track history (hours):
 
Tides and Currents Weather Stations Pressure Air Temp Water Temp Dewpoint Dewpoint Depression Visibility Wind Speed Wind Dir Waves Ship Positions

Kagamaru

Last reported at 2016-Dec-10 10:33 UTC. Time now 2016-Dec-10 10:53 UTC.
Position N 35°27' E 139°39'.

Length 34 m; draft 3.6 m.

Type: Tug. MMSI: 431001272.

Date/timePositionNaut miles runAvg speedWind from/ knotsBaromVisibWave heightAir tempDewpointWater temp
2016-Dec-10 10:33N 35°27' E 139°39'0 0.0
2016-Dec-10 09:33N 35°27' E 139°39'2 2.4
2016-Dec-10 08:34N 35°27' E 139°42'1 0.9
2016-Dec-10 07:33N 35°28' E 139°42'2 2.2
2016-Dec-10 06:33N 35°27' E 139°39'0 0.0
2016-Dec-10 05:33N 35°27' E 139°39'0 0.0
2016-Dec-10 04:33N 35°27' E 139°39'0 0.0
2016-Dec-10 03:33N 35°27' E 139°39'0 0.0
2016-Dec-10 02:33N 35°27' E 139°39'0 0.0
2016-Dec-10 01:33N 35°27' E 139°39'0 0.0
2016-Dec-10 00:33N 35°27' E 139°39'4 4.0
2016-Dec-09 23:33N 35°29' E 139°43'1 1.5
2016-Dec-09 22:33N 35°28' E 139°42'3 2.5
2016-Dec-09 21:33N 35°27' E 139°39'0 0.0
2016-Dec-09 20:33N 35°27' E 139°39'0 0.0
2016-Dec-09 19:33N 35°27' E 139°39'0 0.0
2016-Dec-09 18:33N 35°27' E 139°39'0 0.0
2016-Dec-09 17:33N 35°27' E 139°39'0 0.0
2016-Dec-09 16:33N 35°27' E 139°39'0 0.0
2016-Dec-09 15:33N 35°27' E 139°39'0 0.0
2016-Dec-09 14:33N 35°27' E 139°39'0 0.0
2016-Dec-09 13:33N 35°27' E 139°39'0 0.0
2016-Dec-09 12:33N 35°27' E 139°39'0 0.0
2016-Dec-09 11:33N 35°27' E 139°39'1 1.5
2016-Dec-09 10:33N 35°27' E 139°41'3 2.9
2016-Dec-09 09:33N 35°24' E 139°41'2 2.3
2016-Dec-09 08:33N 35°22' E 139°42'5 5.4
2016-Dec-09 07:33N 35°27' E 139°39'0 0.0
2016-Dec-09 06:33N 35°27' E 139°39'0 0.3
2016-Dec-09 05:33N 35°27' E 139°39'0 0.0
2016-Dec-09 04:33N 35°27' E 139°39'7 7.3
2016-Dec-09 03:34N 35°30' E 139°48'3 2.8
2016-Dec-09 02:33N 35°30' E 139°44'5 5.0
2016-Dec-09 01:33N 35°27' E 139°39'0 0.0
2016-Dec-09 00:33N 35°27' E 139°39'0 0.0
2016-Dec-08 23:33N 35°27' E 139°39'0 0.0
2016-Dec-08 22:33N 35°27' E 139°39'0 0.0
2016-Dec-08 21:33N 35°27' E 139°39'0 0.0
2016-Dec-08 20:33N 35°27' E 139°39'0 0.0
2016-Dec-08 19:33N 35°27' E 139°39'0 0.0
2016-Dec-08 18:33N 35°27' E 139°39'0 0.0
2016-Dec-08 17:33N 35°27' E 139°39'0 0.0
2016-Dec-08 16:33N 35°27' E 139°39'0 0.0
2016-Dec-08 15:34N 35°27' E 139°39'0 0.0
2016-Dec-08 14:33N 35°27' E 139°39'0 0.0
2016-Dec-08 13:33N 35°27' E 139°39'0 0.0
2016-Dec-08 12:33N 35°27' E 139°39'0 0.0
2016-Dec-08 11:33N 35°27' E 139°39'0 0.0
2016-Dec-08 10:33N 35°27' E 139°39'0 0.0
2016-Dec-08 09:33N 35°27' E 139°39'0 0.0
2016-Dec-08 08:33N 35°27' E 139°39'0 0.0
2016-Dec-08 07:33N 35°27' E 139°39'2 2.3
2016-Dec-08 06:33N 35°27' E 139°42'4 4.2
2016-Dec-08 05:33N 35°30' E 139°46'1 0.9
2016-Dec-08 04:33N 35°29' E 139°45'1 1.0
2016-Dec-08 03:30N 35°28' E 139°44'1 0.6
2016-Dec-08 02:33N 35°28' E 139°44'0 0.3
2016-Dec-08 01:33N 35°28' E 139°44'0 0.1
2016-Dec-08 00:33N 35°28' E 139°44'4 3.5
2016-Dec-07 23:34N 35°30' E 139°47'3 2.8
2016-Dec-07 22:33N 35°30' E 139°44'5 4.6
2016-Dec-07 21:33N 35°27' E 139°39'0 0.0
2016-Dec-07 20:33N 35°27' E 139°39'0 0.0
2016-Dec-07 19:33N 35°27' E 139°39'0 0.0
2016-Dec-07 18:33N 35°27' E 139°39'0 0.0
2016-Dec-07 17:33N 35°27' E 139°39'0 0.0
2016-Dec-07 16:33N 35°27' E 139°39'0 0.0
2016-Dec-07 15:34N 35°27' E 139°39'0 0.0
2016-Dec-07 14:33N 35°27' E 139°39'0 0.0
2016-Dec-07 13:33N 35°27' E 139°39'0 0.0
2016-Dec-07 12:33N 35°27' E 139°39'0 0.0
2016-Dec-07 11:33N 35°27' E 139°39'0 0.0
2016-Dec-07 10:33N 35°27' E 139°39'0 0.0
2016-Dec-07 09:33N 35°27' E 139°39'1 1.2
2016-Dec-07 08:34N 35°27' E 139°41'2 1.6
2016-Dec-07 07:33N 35°27' E 139°39'0 0.3
2016-Dec-07 06:34N 35°27' E 139°39'0 0.3
2016-Dec-07 05:33N 35°27' E 139°39'0 0.0
2016-Dec-07 04:34N 35°27' E 139°39'0 0.0
2016-Dec-07 03:34N 35°27' E 139°39'0 0.0
2016-Dec-07 02:34N 35°27' E 139°39'0 0.0
2016-Dec-07 01:34N 35°27' E 139°39'0 0.0
2016-Dec-07 00:34N 35°27' E 139°39'0 0.0
2016-Dec-06 23:34N 35°27' E 139°39'0 0.0
2016-Dec-06 22:34N 35°27' E 139°39'0 0.0
2016-Dec-06 21:34N 35°27' E 139°39'0 0.0
2016-Dec-06 20:34N 35°27' E 139°39'0 0.0
2016-Dec-06 18:33N 35°27' E 139°39'0 0.0
2016-Dec-06 17:34N 35°27' E 139°39'0 0.0
2016-Dec-06 16:34N 35°27' E 139°39'0 0.0
2016-Dec-06 15:34N 35°27' E 139°39'0 0.0
2016-Dec-06 14:34N 35°27' E 139°39'0 0.0
2016-Dec-06 13:34N 35°27' E 139°39'0 0.0
2016-Dec-06 12:34N 35°27' E 139°39'0 0.0
2016-Dec-06 11:34N 35°27' E 139°39'0 0.0
2016-Dec-06 10:34N 35°27' E 139°39'0 0.0
2016-Dec-06 09:33N 35°27' E 139°39'2 1.9
2016-Dec-06 08:34N 35°25' E 139°41'2 1.5
2016-Dec-06 07:34N 35°27' E 139°41'1 1.5
2016-Dec-06 06:33N 35°27' E 139°39'0 0.0
2016-Dec-06 05:33N 35°27' E 139°39'0 0.0
2016-Dec-06 04:33N 35°27' E 139°39'0 0.0
2016-Dec-06 03:33N 35°27' E 139°39'0 0.0
2016-Dec-06 02:34N 35°27' E 139°39'0 0.0
2016-Dec-06 01:34N 35°27' E 139°39'1 0.6
2016-Dec-06 00:34N 35°27' E 139°40'2 1.5
2016-Dec-05 23:34N 35°29' E 139°39'2 1.7
2016-Dec-05 22:34N 35°27' E 139°39'0 0.0
2016-Dec-05 21:34N 35°27' E 139°39'0 0.0
2016-Dec-05 20:34N 35°27' E 139°39'0 0.0
2016-Dec-05 19:33N 35°27' E 139°39'0 0.0
2016-Dec-05 18:34N 35°27' E 139°39'0 0.0
2016-Dec-05 17:34N 35°27' E 139°39'0 0.0
2016-Dec-05 16:34N 35°27' E 139°39'0 0.0
2016-Dec-05 15:34N 35°27' E 139°39'0 0.0
2016-Dec-05 14:34N 35°27' E 139°39'0 0.0
2016-Dec-05 13:33N 35°27' E 139°39'0 0.0
2016-Dec-05 12:33N 35°27' E 139°39'0 0.0
2016-Dec-05 11:33N 35°27' E 139°39'0 0.0
2016-Dec-05 10:34N 35°27' E 139°39'4 1.8
2016-Dec-05 08:34N 35°24' E 139°41'4 3.7
2016-Dec-05 07:34N 35°27' E 139°39'0 0.0
2016-Dec-05 06:33N 35°27' E 139°39'0 0.0
2016-Dec-05 05:34N 35°27' E 139°39'0 0.0
2016-Dec-05 04:33N 35°27' E 139°39'0 0.0
2016-Dec-05 03:34N 35°27' E 139°39'0 0.0
2016-Dec-05 02:34N 35°27' E 139°39'0 0.0
2016-Dec-05 01:33N 35°27' E 139°39'3 2.7
2016-Dec-05 00:34N 35°27' E 139°43'0 0.2
2016-Dec-04 23:34N 35°27' E 139°42'1 0.8
2016-Dec-04 22:33N 35°27' E 139°41'1 1.4
2016-Dec-04 21:34N 35°26' E 139°42'3 2.7
2016-Dec-04 20:34N 35°27' E 139°39'0 0.0
2016-Dec-04 19:34N 35°27' E 139°39'0 0.0
2016-Dec-04 18:33N 35°27' E 139°39'0 0.0
2016-Dec-04 17:33N 35°27' E 139°39'0 0.0
2016-Dec-04 16:34N 35°27' E 139°39'0 0.0
2016-Dec-04 15:34N 35°27' E 139°39'0 0.0
2016-Dec-04 14:34N 35°27' E 139°39'0 0.0
2016-Dec-04 13:34N 35°27' E 139°39'0 0.0
2016-Dec-04 12:34N 35°27' E 139°39'0 0.0
2016-Dec-04 11:34N 35°27' E 139°39'0 0.0
2016-Dec-04 10:34N 35°27' E 139°39'0 0.0
2016-Dec-04 09:34N 35°27' E 139°39'0 0.0
2016-Dec-04 08:33N 35°27' E 139°39'0 0.0
2016-Dec-04 07:34N 35°27' E 139°39'0 0.0
2016-Dec-04 06:34N 35°27' E 139°39'0 0.0
2016-Dec-04 05:34N 35°27' E 139°39'0 0.0
2016-Dec-04 04:34N 35°27' E 139°39'0 0.0
2016-Dec-04 03:34N 35°27' E 139°39'0 0.0
2016-Dec-04 02:34N 35°27' E 139°39'3 3.3
2016-Dec-04 01:34N 35°28' E 139°43'0 0.1
2016-Dec-04 00:34N 35°28' E 139°43'1 0.7
2016-Dec-03 23:34N 35°27' E 139°43'1 1.1
2016-Dec-03 22:34N 35°27' E 139°42'0 0.0
2016-Dec-03 21:34N 35°27' E 139°42'1 0.7
2016-Dec-03 20:33N 35°28' E 139°43'3 3.0
2016-Dec-03 19:34N 35°27' E 139°39'0 0.0
2016-Dec-03 18:33N 35°27' E 139°39'0 0.0
2016-Dec-03 17:33N 35°27' E 139°39'0 0.0
2016-Dec-03 16:34N 35°27' E 139°39'0 0.0
2016-Dec-03 15:33N 35°27' E 139°39'0 0.0
2016-Dec-03 14:34N 35°27' E 139°39'0 0.0
2016-Dec-03 13:33N 35°27' E 139°39'0 0.0
2016-Dec-03 12:34N 35°27' E 139°39'0 0.0
2016-Dec-03 11:34N 35°27' E 139°39'0 0.0
2016-Dec-03 10:34N 35°27' E 139°39'0 0.0
2016-Dec-03 09:33N 35°27' E 139°39'0 0.0
2016-Dec-03 08:34N 35°27' E 139°39'0 0.0
2016-Dec-03 07:33N 35°27' E 139°39'2 1.9
2016-Dec-03 06:34N 35°28' E 139°41'2 1.9
2016-Dec-03 05:34N 35°27' E 139°39'0 0.0
2016-Dec-03 04:34N 35°27' E 139°39'0 0.0
2016-Dec-03 03:34N 35°27' E 139°39'0 0.0
2016-Dec-03 02:34N 35°27' E 139°39'0 0.0
2016-Dec-03 01:34N 35°27' E 139°39'0 0.0
2016-Dec-03 00:34N 35°27' E 139°39'1 1.3
2016-Dec-02 23:34N 35°28' E 139°40'5 4.9
2016-Dec-02 22:34N 35°31' E 139°45'4 4.0
2016-Dec-02 21:34N 35°27' E 139°43'3 2.9
2016-Dec-02 20:34N 35°27' E 139°39'0 0.0
2016-Dec-02 19:34N 35°27' E 139°39'0 0.0
2016-Dec-02 18:34N 35°27' E 139°39'0 0.0
2016-Dec-02 17:34N 35°27' E 139°39'0 0.0
2016-Dec-02 16:33N 35°27' E 139°39'0 0.0
2016-Dec-02 15:33N 35°27' E 139°39'0 0.0
2016-Dec-02 14:34N 35°27' E 139°39'0 0.0
2016-Dec-02 13:34N 35°27' E 139°39'0 0.0
2016-Dec-02 12:34N 35°27' E 139°39'0 0.0
2016-Dec-02 11:34N 35°27' E 139°39'0 0.0
2016-Dec-02 10:33N 35°27' E 139°39'3 3.1
2016-Dec-02 09:33N 35°24' E 139°41'1 1.4
2016-Dec-02 08:33N 35°23' E 139°41'1 0.7
2016-Dec-02 07:34N 35°23' E 139°41'1 1.3
2016-Dec-02 06:33N 35°22' E 139°39'5 4.7
2016-Dec-02 05:34N 35°27' E 139°41'2 1.5
2016-Dec-02 04:34N 35°27' E 139°39'2 1.7
2016-Dec-02 03:34N 35°27' E 139°41'5 4.4
2016-Dec-02 02:22N 35°29' E 139°47'0 0.3
2016-Dec-02 01:34N 35°29' E 139°47'4 3.7
2016-Dec-02 00:34N 35°26' E 139°44'4 4.3
2016-Dec-01 23:34N 35°27' E 139°39'0 0.0
2016-Dec-01 22:34N 35°27' E 139°39'0 0.0
2016-Dec-01 21:33N 35°27' E 139°39'0 0.0
2016-Dec-01 20:34N 35°27' E 139°39'0 0.0
2016-Dec-01 19:34N 35°27' E 139°39'0 0.0
2016-Dec-01 18:34N 35°27' E 139°39'0 0.0
2016-Dec-01 17:34N 35°27' E 139°39'0 0.0
2016-Dec-01 16:34N 35°27' E 139°39'0 0.0
2016-Dec-01 15:34N 35°27' E 139°39'0 0.0
2016-Dec-01 14:34N 35°27' E 139°39'0 0.0
2016-Dec-01 13:34N 35°27' E 139°39'0 0.0
2016-Dec-01 12:33N 35°27' E 139°39'0 0.0
2016-Dec-01 11:34N 35°27' E 139°39'0 0.0
2016-Dec-01 10:34N 35°27' E 139°39'0 0.0
2016-Dec-01 09:33N 35°27' E 139°39'0 0.0
2016-Dec-01 08:34N 35°27' E 139°39'0 0.0
2016-Dec-01 07:33N 35°27' E 139°39'0 0.0
2016-Dec-01 06:34N 35°27' E 139°39'0 0.0
2016-Dec-01 05:34N 35°27' E 139°39'0 0.0
2016-Dec-01 04:34N 35°27' E 139°39'0 0.0
2016-Dec-01 03:34N 35°27' E 139°39'0 0.0
2016-Dec-01 02:34N 35°27' E 139°39'0 0.0
2016-Dec-01 01:34N 35°27' E 139°39'0 0.0
2016-Dec-01 00:34N 35°27' E 139°39'0 0.2
2016-Nov-30 23:34N 35°27' E 139°39'3 3.2
2016-Nov-30 22:34N 35°24' E 139°41'1 1.1
2016-Nov-30 21:33N 35°23' E 139°42'4 4.1
2016-Nov-30 20:34N 35°27' E 139°39'0 0.0
2016-Nov-30 19:34N 35°27' E 139°39'0 0.0
2016-Nov-30 18:34N 35°27' E 139°39'0 0.0
2016-Nov-30 17:34N 35°27' E 139°39'0 0.0
2016-Nov-30 16:34N 35°27' E 139°39'0 0.0
2016-Nov-30 15:34N 35°27' E 139°39'0 0.0
2016-Nov-30 14:34N 35°27' E 139°39'0 0.0
2016-Nov-30 13:34N 35°27' E 139°39'0 0.0
2016-Nov-30 12:33N 35°27' E 139°39'0 0.0
2016-Nov-30 11:34N 35°27' E 139°39'0 0.0
2016-Nov-30 10:34N 35°27' E 139°39'  
Track history (hours):
 
Tides and Currents Weather Stations Pressure Air Temp Water Temp Dewpoint Dewpoint Depression Visibility Wind Speed Wind Dir Waves Ship Positions

Kagamaru

Last reported at 2016-Dec-10 10:33 UTC. Time now 2016-Dec-10 10:53 UTC.
Position N 35°27' E 139°39'.

Length 34 m; draft 3.6 m.

Type: Tug. MMSI: 431001272.

Date/timePositionNaut miles runAvg speedWind from/ knotsBaromVisibWave heightAir tempDewpointWater temp
2016-Dec-10 10:33N 35°27' E 139°39'0 0.0
2016-Dec-10 09:33N 35°27' E 139°39'2 2.4
2016-Dec-10 08:34N 35°27' E 139°42'1 0.9
2016-Dec-10 07:33N 35°28' E 139°42'2 2.2
2016-Dec-10 06:33N 35°27' E 139°39'0 0.0
2016-Dec-10 05:33N 35°27' E 139°39'0 0.0
2016-Dec-10 04:33N 35°27' E 139°39'0 0.0
2016-Dec-10 03:33N 35°27' E 139°39'0 0.0
2016-Dec-10 02:33N 35°27' E 139°39'0 0.0
2016-Dec-10 01:33N 35°27' E 139°39'0 0.0
2016-Dec-10 00:33N 35°27' E 139°39'4 4.0
2016-Dec-09 23:33N 35°29' E 139°43'1 1.5
2016-Dec-09 22:33N 35°28' E 139°42'3 2.5
2016-Dec-09 21:33N 35°27' E 139°39'0 0.0
2016-Dec-09 20:33N 35°27' E 139°39'0 0.0
2016-Dec-09 19:33N 35°27' E 139°39'0 0.0
2016-Dec-09 18:33N 35°27' E 139°39'0 0.0
2016-Dec-09 17:33N 35°27' E 139°39'0 0.0
2016-Dec-09 16:33N 35°27' E 139°39'0 0.0
2016-Dec-09 15:33N 35°27' E 139°39'0 0.0
2016-Dec-09 14:33N 35°27' E 139°39'0 0.0
2016-Dec-09 13:33N 35°27' E 139°39'0 0.0
2016-Dec-09 12:33N 35°27' E 139°39'0 0.0
2016-Dec-09 11:33N 35°27' E 139°39'1 1.5
2016-Dec-09 10:33N 35°27' E 139°41'3 2.9
2016-Dec-09 09:33N 35°24' E 139°41'2 2.3
2016-Dec-09 08:33N 35°22' E 139°42'5 5.4
2016-Dec-09 07:33N 35°27' E 139°39'0 0.0
2016-Dec-09 06:33N 35°27' E 139°39'0 0.3
2016-Dec-09 05:33N 35°27' E 139°39'0 0.0
2016-Dec-09 04:33N 35°27' E 139°39'7 7.3
2016-Dec-09 03:34N 35°30' E 139°48'3 2.8
2016-Dec-09 02:33N 35°30' E 139°44'5 5.0
2016-Dec-09 01:33N 35°27' E 139°39'0 0.0
2016-Dec-09 00:33N 35°27' E 139°39'0 0.0
2016-Dec-08 23:33N 35°27' E 139°39'0 0.0
2016-Dec-08 22:33N 35°27' E 139°39'0 0.0
2016-Dec-08 21:33N 35°27' E 139°39'0 0.0
2016-Dec-08 20:33N 35°27' E 139°39'0 0.0
2016-Dec-08 19:33N 35°27' E 139°39'0 0.0
2016-Dec-08 18:33N 35°27' E 139°39'0 0.0
2016-Dec-08 17:33N 35°27' E 139°39'0 0.0
2016-Dec-08 16:33N 35°27' E 139°39'0 0.0
2016-Dec-08 15:34N 35°27' E 139°39'0 0.0
2016-Dec-08 14:33N 35°27' E 139°39'0 0.0
2016-Dec-08 13:33N 35°27' E 139°39'0 0.0
2016-Dec-08 12:33N 35°27' E 139°39'0 0.0
2016-Dec-08 11:33N 35°27' E 139°39'0 0.0
2016-Dec-08 10:33N 35°27' E 139°39'0 0.0
2016-Dec-08 09:33N 35°27' E 139°39'0 0.0
2016-Dec-08 08:33N 35°27' E 139°39'0 0.0
2016-Dec-08 07:33N 35°27' E 139°39'2 2.3
2016-Dec-08 06:33N 35°27' E 139°42'4 4.2
2016-Dec-08 05:33N 35°30' E 139°46'1 0.9
2016-Dec-08 04:33N 35°29' E 139°45'1 1.0
2016-Dec-08 03:30N 35°28' E 139°44'1 0.6
2016-Dec-08 02:33N 35°28' E 139°44'0 0.3
2016-Dec-08 01:33N 35°28' E 139°44'0 0.1
2016-Dec-08 00:33N 35°28' E 139°44'4 3.5
2016-Dec-07 23:34N 35°30' E 139°47'3 2.8
2016-Dec-07 22:33N 35°30' E 139°44'5 4.6
2016-Dec-07 21:33N 35°27' E 139°39'0 0.0
2016-Dec-07 20:33N 35°27' E 139°39'0 0.0
2016-Dec-07 19:33N 35°27' E 139°39'0 0.0
2016-Dec-07 18:33N 35°27' E 139°39'0 0.0
2016-Dec-07 17:33N 35°27' E 139°39'0 0.0
2016-Dec-07 16:33N 35°27' E 139°39'0 0.0
2016-Dec-07 15:34N 35°27' E 139°39'0 0.0
2016-Dec-07 14:33N 35°27' E 139°39'0 0.0
2016-Dec-07 13:33N 35°27' E 139°39'0 0.0
2016-Dec-07 12:33N 35°27' E 139°39'0 0.0
2016-Dec-07 11:33N 35°27' E 139°39'0 0.0
2016-Dec-07 10:33N 35°27' E 139°39'0 0.0
2016-Dec-07 09:33N 35°27' E 139°39'1 1.2
2016-Dec-07 08:34N 35°27' E 139°41'2 1.6
2016-Dec-07 07:33N 35°27' E 139°39'0 0.3
2016-Dec-07 06:34N 35°27' E 139°39'0 0.3
2016-Dec-07 05:33N 35°27' E 139°39'0 0.0
2016-Dec-07 04:34N 35°27' E 139°39'0 0.0
2016-Dec-07 03:34N 35°27' E 139°39'0 0.0
2016-Dec-07 02:34N 35°27' E 139°39'0 0.0
2016-Dec-07 01:34N 35°27' E 139°39'0 0.0
2016-Dec-07 00:34N 35°27' E 139°39'0 0.0
2016-Dec-06 23:34N 35°27' E 139°39'0 0.0
2016-Dec-06 22:34N 35°27' E 139°39'0 0.0
2016-Dec-06 21:34N 35°27' E 139°39'0 0.0
2016-Dec-06 20:34N 35°27' E 139°39'0 0.0
2016-Dec-06 18:33N 35°27' E 139°39'0 0.0
2016-Dec-06 17:34N 35°27' E 139°39'0 0.0
2016-Dec-06 16:34N 35°27' E 139°39'0 0.0
2016-Dec-06 15:34N 35°27' E 139°39'0 0.0
2016-Dec-06 14:34N 35°27' E 139°39'0 0.0
2016-Dec-06 13:34N 35°27' E 139°39'0 0.0
2016-Dec-06 12:34N 35°27' E 139°39'0 0.0
2016-Dec-06 11:34N 35°27' E 139°39'0 0.0
2016-Dec-06 10:34N 35°27' E 139°39'0 0.0
2016-Dec-06 09:33N 35°27' E 139°39'2 1.9
2016-Dec-06 08:34N 35°25' E 139°41'2 1.5
2016-Dec-06 07:34N 35°27' E 139°41'1 1.5
2016-Dec-06 06:33N 35°27' E 139°39'0 0.0
2016-Dec-06 05:33N 35°27' E 139°39'0 0.0
2016-Dec-06 04:33N 35°27' E 139°39'0 0.0
2016-Dec-06 03:33N 35°27' E 139°39'0 0.0
2016-Dec-06 02:34N 35°27' E 139°39'0 0.0
2016-Dec-06 01:34N 35°27' E 139°39'1 0.6
2016-Dec-06 00:34N 35°27' E 139°40'2 1.5
2016-Dec-05 23:34N 35°29' E 139°39'2 1.7
2016-Dec-05 22:34N 35°27' E 139°39'0 0.0
2016-Dec-05 21:34N 35°27' E 139°39'0 0.0
2016-Dec-05 20:34N 35°27' E 139°39'0 0.0
2016-Dec-05 19:33N 35°27' E 139°39'0 0.0
2016-Dec-05 18:34N 35°27' E 139°39'0 0.0
2016-Dec-05 17:34N 35°27' E 139°39'0 0.0
2016-Dec-05 16:34N 35°27' E 139°39'0 0.0
2016-Dec-05 15:34N 35°27' E 139°39'0 0.0
2016-Dec-05 14:34N 35°27' E 139°39'0 0.0
2016-Dec-05 13:33N 35°27' E 139°39'0 0.0
2016-Dec-05 12:33N 35°27' E 139°39'0 0.0
2016-Dec-05 11:33N 35°27' E 139°39'0 0.0
2016-Dec-05 10:34N 35°27' E 139°39'4 1.8
2016-Dec-05 08:34N 35°24' E 139°41'4 3.7
2016-Dec-05 07:34N 35°27' E 139°39'0 0.0
2016-Dec-05 06:33N 35°27' E 139°39'0 0.0
2016-Dec-05 05:34N 35°27' E 139°39'0 0.0
2016-Dec-05 04:33N 35°27' E 139°39'0 0.0
2016-Dec-05 03:34N 35°27' E 139°39'0 0.0
2016-Dec-05 02:34N 35°27' E 139°39'0 0.0
2016-Dec-05 01:33N 35°27' E 139°39'3 2.7
2016-Dec-05 00:34N 35°27' E 139°43'0 0.2
2016-Dec-04 23:34N 35°27' E 139°42'1 0.8
2016-Dec-04 22:33N 35°27' E 139°41'1 1.4
2016-Dec-04 21:34N 35°26' E 139°42'3 2.7
2016-Dec-04 20:34N 35°27' E 139°39'0 0.0
2016-Dec-04 19:34N 35°27' E 139°39'0 0.0
2016-Dec-04 18:33N 35°27' E 139°39'0 0.0
2016-Dec-04 17:33N 35°27' E 139°39'0 0.0
2016-Dec-04 16:34N 35°27' E 139°39'0 0.0
2016-Dec-04 15:34N 35°27' E 139°39'0 0.0
2016-Dec-04 14:34N 35°27' E 139°39'0 0.0
2016-Dec-04 13:34N 35°27' E 139°39'0 0.0
2016-Dec-04 12:34N 35°27' E 139°39'0 0.0
2016-Dec-04 11:34N 35°27' E 139°39'0 0.0
2016-Dec-04 10:34N 35°27' E 139°39'0 0.0
2016-Dec-04 09:34N 35°27' E 139°39'0 0.0
2016-Dec-04 08:33N 35°27' E 139°39'0 0.0
2016-Dec-04 07:34N 35°27' E 139°39'0 0.0
2016-Dec-04 06:34N 35°27' E 139°39'0 0.0
2016-Dec-04 05:34N 35°27' E 139°39'0 0.0
2016-Dec-04 04:34N 35°27' E 139°39'0 0.0
2016-Dec-04 03:34N 35°27' E 139°39'0 0.0
2016-Dec-04 02:34N 35°27' E 139°39'3 3.3
2016-Dec-04 01:34N 35°28' E 139°43'0 0.1
2016-Dec-04 00:34N 35°28' E 139°43'1 0.7
2016-Dec-03 23:34N 35°27' E 139°43'1 1.1
2016-Dec-03 22:34N 35°27' E 139°42'0 0.0
2016-Dec-03 21:34N 35°27' E 139°42'1 0.7
2016-Dec-03 20:33N 35°28' E 139°43'3 3.0
2016-Dec-03 19:34N 35°27' E 139°39'0 0.0
2016-Dec-03 18:33N 35°27' E 139°39'0 0.0
2016-Dec-03 17:33N 35°27' E 139°39'0 0.0
2016-Dec-03 16:34N 35°27' E 139°39'0 0.0
2016-Dec-03 15:33N 35°27' E 139°39'0 0.0
2016-Dec-03 14:34N 35°27' E 139°39'0 0.0
2016-Dec-03 13:33N 35°27' E 139°39'0 0.0
2016-Dec-03 12:34N 35°27' E 139°39'0 0.0
2016-Dec-03 11:34N 35°27' E 139°39'0 0.0
2016-Dec-03 10:34N 35°27' E 139°39'0 0.0
2016-Dec-03 09:33N 35°27' E 139°39'0 0.0
2016-Dec-03 08:34N 35°27' E 139°39'0 0.0
2016-Dec-03 07:33N 35°27' E 139°39'2 1.9
2016-Dec-03 06:34N 35°28' E 139°41'2 1.9
2016-Dec-03 05:34N 35°27' E 139°39'0 0.0
2016-Dec-03 04:34N 35°27' E 139°39'0 0.0
2016-Dec-03 03:34N 35°27' E 139°39'0 0.0
2016-Dec-03 02:34N 35°27' E 139°39'0 0.0
2016-Dec-03 01:34N 35°27' E 139°39'0 0.0
2016-Dec-03 00:34N 35°27' E 139°39'1 1.3
2016-Dec-02 23:34N 35°28' E 139°40'5 4.9
2016-Dec-02 22:34N 35°31' E 139°45'4 4.0
2016-Dec-02 21:34N 35°27' E 139°43'3 2.9
2016-Dec-02 20:34N 35°27' E 139°39'0 0.0
2016-Dec-02 19:34N 35°27' E 139°39'0 0.0
2016-Dec-02 18:34N 35°27' E 139°39'0 0.0
2016-Dec-02 17:34N 35°27' E 139°39'0 0.0
2016-Dec-02 16:33N 35°27' E 139°39'0 0.0
2016-Dec-02 15:33N 35°27' E 139°39'0 0.0
2016-Dec-02 14:34N 35°27' E 139°39'0 0.0
2016-Dec-02 13:34N 35°27' E 139°39'0 0.0
2016-Dec-02 12:34N 35°27' E 139°39'0 0.0
2016-Dec-02 11:34N 35°27' E 139°39'0 0.0
2016-Dec-02 10:33N 35°27' E 139°39'3 3.1
2016-Dec-02 09:33N 35°24' E 139°41'1 1.4
2016-Dec-02 08:33N 35°23' E 139°41'1 0.7
2016-Dec-02 07:34N 35°23' E 139°41'1 1.3
2016-Dec-02 06:33N 35°22' E 139°39'5 4.7
2016-Dec-02 05:34N 35°27' E 139°41'2 1.5
2016-Dec-02 04:34N 35°27' E 139°39'2 1.7
2016-Dec-02 03:34N 35°27' E 139°41'5 4.4
2016-Dec-02 02:22N 35°29' E 139°47'0 0.3
2016-Dec-02 01:34N 35°29' E 139°47'4 3.7
2016-Dec-02 00:34N 35°26' E 139°44'4 4.3
2016-Dec-01 23:34N 35°27' E 139°39'0 0.0
2016-Dec-01 22:34N 35°27' E 139°39'0 0.0
2016-Dec-01 21:33N 35°27' E 139°39'0 0.0
2016-Dec-01 20:34N 35°27' E 139°39'0 0.0
2016-Dec-01 19:34N 35°27' E 139°39'0 0.0
2016-Dec-01 18:34N 35°27' E 139°39'0 0.0
2016-Dec-01 17:34N 35°27' E 139°39'0 0.0
2016-Dec-01 16:34N 35°27' E 139°39'0 0.0
2016-Dec-01 15:34N 35°27' E 139°39'0 0.0
2016-Dec-01 14:34N 35°27' E 139°39'0 0.0
2016-Dec-01 13:34N 35°27' E 139°39'0 0.0
2016-Dec-01 12:33N 35°27' E 139°39'0 0.0
2016-Dec-01 11:34N 35°27' E 139°39'0 0.0
2016-Dec-01 10:34N 35°27' E 139°39'0 0.0
2016-Dec-01 09:33N 35°27' E 139°39'0 0.0
2016-Dec-01 08:34N 35°27' E 139°39'0 0.0
2016-Dec-01 07:33N 35°27' E 139°39'0 0.0
2016-Dec-01 06:34N 35°27' E 139°39'0 0.0
2016-Dec-01 05:34N 35°27' E 139°39'0 0.0
2016-Dec-01 04:34N 35°27' E 139°39'0 0.0
2016-Dec-01 03:34N 35°27' E 139°39'0 0.0
2016-Dec-01 02:34N 35°27' E 139°39'0 0.0
2016-Dec-01 01:34N 35°27' E 139°39'0 0.0
2016-Dec-01 00:34N 35°27' E 139°39'0 0.2
2016-Nov-30 23:34N 35°27' E 139°39'3 3.2
2016-Nov-30 22:34N 35°24' E 139°41'1 1.1
2016-Nov-30 21:33N 35°23' E 139°42'4 4.1
2016-Nov-30 20:34N 35°27' E 139°39'0 0.0
2016-Nov-30 19:34N 35°27' E 139°39'0 0.0
2016-Nov-30 18:34N 35°27' E 139°39'0 0.0
2016-Nov-30 17:34N 35°27' E 139°39'0 0.0
2016-Nov-30 16:34N 35°27' E 139°39'0 0.0
2016-Nov-30 15:34N 35°27' E 139°39'0 0.0
2016-Nov-30 14:34N 35°27' E 139°39'0 0.0
2016-Nov-30 13:34N 35°27' E 139°39'0 0.0
2016-Nov-30 12:33N 35°27' E 139°39'0 0.0
2016-Nov-30 11:34N 35°27' E 139°39'0 0.0
2016-Nov-30 10:34N 35°27' E 139°39'  

Dump ship's entire track history